This is the latest recevied weather packets stored in our database for station/object ZL1CTS-13. If no packets are shown the sender has not sent any weather packets the latest 10 day(s).
| Time | Temp. | Humidity | Pressure | Rain* | Wind** | Luminosity | Snow |
|---|---|---|---|---|---|---|---|
| 1777445403 | 16.67° C | 93% | 1017.9 hPa | 0 mm | - | - | - |
| 1777444804 | 16.67° C | 94% | 1017.9 hPa | 0 mm | - | - | - |
| 1777444207 | 16.11° C | 93% | 1018 hPa | 0 mm | - | - | - |
| 1777443605 | 16.11° C | 92% | 1017.8 hPa | 0 mm | - | - | - |
| 1777443004 | 16.11° C | 92% | 1017.9 hPa | 0 mm | - | - | - |
| 1777442404 | 16.11° C | 91% | 1017.7 hPa | 0 mm | - | - | - |
| 1777441804 | 16.67° C | 90% | 1017.6 hPa | 0 mm | - | - | - |
| 1777441204 | 16.67° C | 87% | 1017.8 hPa | 0 mm | - | - | - |
| 1777440604 | 17.78° C | 82% | 1017.9 hPa | 0 mm | - | - | - |
| 1777440004 | 19.44° C | 80% | 1017.8 hPa | 0 mm | - | - | - |
| 1777439404 | 20° C | 78% | 1017.9 hPa | 0 mm | - | - | - |
| 1777438804 | 20° C | 78% | 1018 hPa | 0 mm | - | - | - |
| 1777438204 | 20° C | 77% | 1017.9 hPa | 0 mm | - | - | - |
| 1777437605 | 20.56° C | 75% | 1017.9 hPa | 0 mm | - | - | - |
| 1777437004 | 21.11° C | 72% | 1017.9 hPa | 0 mm | - | - | - |
| 1777436404 | 21.11° C | 74% | 1018 hPa | 0 mm | - | - | - |
| 1777435804 | 20.56° C | 74% | 1017.9 hPa | 0 mm | - | - | - |
| 1777435205 | 21.11° C | 73% | 1017.9 hPa | 0 mm | - | - | - |
| 1777434604 | 21.11° C | 75% | 1018 hPa | 0 mm | - | - | - |
| 1777434003 | 21.11° C | 77% | 1017.9 hPa | 0 mm | - | - | - |
| 1777433404 | 20.56° C | 82% | 1017.9 hPa | 0 mm | - | - | - |
| 1777432803 | 18.33° C | 89% | 1017.8 hPa | 0 mm | - | - | - |
| 1777432205 | 17.78° C | 87% | 1017.9 hPa | 0 mm | - | - | - |
| 1777431604 | 18.33° C | 85% | 1018 hPa | 0 mm | - | - | - |
| 1777431004 | 18.33° C | 85% | 1018 hPa | 0 mm | - | - | - |
* Rain latest hour (hover to see other rain measurements)
** Current wind speed in m/s (hover to see current wind gust speed)